GAP2845 RPLL-RPVM
Flight info
| Callsign | GAP2845 |
|---|---|
| Flight time | 1h 10m |
| Altitude | 35000 |
| Route | IPATA2R IPATA W25 BATAY BATAY3P |
| Aircraft | A21N/M-SDE2E3FGHIRWXY/LB1 |
Departure
| Time | 2026-04-30 05:36 |
|---|---|
| Airport | Ninoy Aquino International Airport (RPLL) |
Arrival
| Time | 2026-04-30 06:46 |
|---|---|
| Airport | Mactan Cebu International Airport (RPVM) |
| Time | Latitude | Longitude | Altitude | Speed | Heading |
|---|---|---|---|---|---|
| 2026-04-30 05:11 | 14.51052 | 121.01406 | 81 ft | 0 kts | 232° |
| 2026-04-30 05:23 | 14.51053 | 121.01406 | 81 ft | 0 kts | 232° |
| 2026-04-30 05:23 | 14.51060 | 121.01417 | 81 ft | 2 kts | 232° |
| 2026-04-30 05:23 | 14.51069 | 121.01429 | 81 ft | 2 kts | 232° |
| 2026-04-30 05:24 | 14.51075 | 121.01437 | 81 ft | 2 kts | 225° |
| 2026-04-30 05:24 | 14.51088 | 121.01444 | 81 ft | 2 kts | 189° |
| 2026-04-30 05:24 | 14.51103 | 121.01443 | 81 ft | 2 kts | 160° |
| 2026-04-30 05:24 | 14.51113 | 121.01437 | 81 ft | 0 kts | 137° |
| 2026-04-30 05:25 | 14.51111 | 121.01440 | 81 ft | 3 kts | 137° |
| 2026-04-30 05:25 | 14.51100 | 121.01450 | 81 ft | 0 kts | 133° |
| 2026-04-30 05:25 | 14.51098 | 121.01453 | 81 ft | 0 kts | 134° |
| 2026-04-30 05:29 | 14.51090 | 121.01462 | 81 ft | 3 kts | 134° |
| 2026-04-30 05:29 | 14.51060 | 121.01494 | 81 ft | 8 kts | 133° |
| 2026-04-30 05:29 | 14.51021 | 121.01534 | 81 ft | 2 kts | 135° |
| 2026-04-30 05:29 | 14.50999 | 121.01557 | 81 ft | 6 kts | 135° |
| 2026-04-30 05:30 | 14.50953 | 121.01603 | 81 ft | 11 kts | 136° |
| 2026-04-30 05:30 | 14.50895 | 121.01656 | 81 ft | 10 kts | 163° |
| 2026-04-30 05:30 | 14.50836 | 121.01619 | 81 ft | 12 kts | 238° |
| 2026-04-30 05:30 | 14.50785 | 121.01529 | 81 ft | 16 kts | 241° |
| 2026-04-30 05:31 | 14.50725 | 121.01420 | 81 ft | 17 kts | 240° |
| 2026-04-30 05:31 | 14.50659 | 121.01301 | 80 ft | 20 kts | 240° |
| 2026-04-30 05:31 | 14.50602 | 121.01199 | 80 ft | 17 kts | 240° |
| 2026-04-30 05:31 | 14.50544 | 121.01093 | 81 ft | 14 kts | 241° |
| 2026-04-30 05:32 | 14.50487 | 121.00991 | 80 ft | 18 kts | 240° |
| 2026-04-30 05:32 | 14.50428 | 121.00886 | 80 ft | 17 kts | 240° |
| 2026-04-30 05:32 | 14.50361 | 121.00764 | 80 ft | 21 kts | 239° |
| 2026-04-30 05:32 | 14.50292 | 121.00642 | 80 ft | 18 kts | 240° |
| 2026-04-30 05:33 | 14.50223 | 121.00517 | 80 ft | 21 kts | 237° |
| 2026-04-30 05:33 | 14.50144 | 121.00376 | 80 ft | 24 kts | 240° |
| 2026-04-30 05:33 | 14.50079 | 121.00256 | 81 ft | 18 kts | 240° |
| 2026-04-30 05:33 | 14.50009 | 121.00131 | 81 ft | 21 kts | 240° |
| 2026-04-30 05:34 | 14.49943 | 121.00014 | 81 ft | 16 kts | 240° |
| 2026-04-30 05:34 | 14.49898 | 120.99968 | 81 ft | 7 kts | 189° |
| 2026-04-30 05:34 | 14.49852 | 120.99978 | 81 ft | 9 kts | 155° |
| 2026-04-30 05:34 | 14.49801 | 121.00025 | 81 ft | 8 kts | 104° |
| 2026-04-30 05:35 | 14.49821 | 121.00077 | 81 ft | 7 kts | 56° |
| 2026-04-30 05:35 | 14.49829 | 121.00092 | 81 ft | 0 kts | 61° |
| 2026-04-30 05:35 | 14.49890 | 121.00205 | 81 ft | 51 kts | 62° |
| 2026-04-30 05:36 | 14.50185 | 121.00745 | 81 ft | 119 kts | 61° |
| 2026-04-30 05:36 | 14.50696 | 121.01656 | 83 ft | 170 kts | 59° |
| 2026-04-30 05:36 | 14.51349 | 121.02773 | 434 ft | 184 kts | 64° |
| 2026-04-30 05:36 | 14.51960 | 121.03878 | 1194 ft | 179 kts | 63° |
| 2026-04-30 05:37 | 14.52578 | 121.04996 | 1882 ft | 181 kts | 63° |
| 2026-04-30 05:37 | 14.53218 | 121.06158 | 2390 ft | 194 kts | 62° |
| 2026-04-30 05:37 | 14.53885 | 121.07355 | 3097 ft | 194 kts | 61° |
| 2026-04-30 05:37 | 14.54585 | 121.08615 | 3416 ft | 220 kts | 61° |
| 2026-04-30 05:38 | 14.55418 | 121.10122 | 3458 ft | 260 kts | 61° |
| 2026-04-30 05:38 | 14.56371 | 121.11852 | 3560 ft | 295 kts | 61° |
| 2026-04-30 05:38 | 14.57449 | 121.13838 | 3609 ft | 329 kts | 64° |
| 2026-04-30 05:38 | 14.58046 | 121.16077 | 4830 ft | 319 kts | 85° |
| 2026-04-30 05:39 | 14.58118 | 121.18307 | 6071 ft | 318 kts | 88° |
| 2026-04-30 05:39 | 14.58192 | 121.20627 | 7029 ft | 335 kts | 86° |
| 2026-04-30 05:39 | 14.58361 | 121.23094 | 7951 ft | 354 kts | 86° |
| 2026-04-30 05:39 | 14.58081 | 121.25682 | 8825 ft | 375 kts | 109° |
| 2026-04-30 05:40 | 14.56720 | 121.28048 | 9624 ft | 399 kts | 131° |
| 2026-04-30 05:40 | 14.54508 | 121.29974 | 10208 ft | 427 kts | 144° |
| 2026-04-30 05:40 | 14.52080 | 121.31586 | 11471 ft | 411 kts | 146° |
| 2026-04-30 05:40 | 14.49767 | 121.33164 | 12070 ft | 388 kts | 144° |
| 2026-04-30 05:41 | 14.47491 | 121.34815 | 12108 ft | 394 kts | 143° |
| 2026-04-30 05:41 | 14.45335 | 121.36431 | 12749 ft | 391 kts | 142° |
| 2026-04-30 05:41 | 14.43124 | 121.38107 | 13736 ft | 381 kts | 141° |
| 2026-04-30 05:41 | 14.40996 | 121.39731 | 14701 ft | 371 kts | 141° |
| 2026-04-30 05:42 | 14.38971 | 121.41282 | 15657 ft | 361 kts | 141° |
| 2026-04-30 05:42 | 14.36971 | 121.42815 | 16618 ft | 350 kts | 141° |
| 2026-04-30 05:42 | 14.35020 | 121.44313 | 17343 ft | 347 kts | 141° |
| 2026-04-30 05:42 | 14.33097 | 121.45789 | 18232 ft | 337 kts | 141° |
| 2026-04-30 05:43 | 14.31240 | 121.47213 | 18988 ft | 331 kts | 140° |
| 2026-04-30 05:43 | 14.29369 | 121.48647 | 19456 ft | 334 kts | 140° |
| 2026-04-30 05:43 | 14.27509 | 121.50073 | 19868 ft | 338 kts | 140° |
| 2026-04-30 05:43 | 14.25556 | 121.51564 | 20333 ft | 340 kts | 140° |
| 2026-04-30 05:44 | 14.23616 | 121.53040 | 20787 ft | 342 kts | 140° |
| 2026-04-30 05:44 | 14.21700 | 121.54498 | 21211 ft | 345 kts | 140° |
| 2026-04-30 05:44 | 14.19750 | 121.55984 | 21635 ft | 347 kts | 140° |
| 2026-04-30 05:44 | 14.17763 | 121.57498 | 22055 ft | 349 kts | 140° |
| 2026-04-30 05:45 | 14.15823 | 121.58978 | 22451 ft | 352 kts | 140° |
| 2026-04-30 05:45 | 14.13818 | 121.60506 | 22851 ft | 354 kts | 140° |
| 2026-04-30 05:45 | 14.11847 | 121.62008 | 23234 ft | 356 kts | 140° |
| 2026-04-30 05:45 | 14.09829 | 121.63545 | 23614 ft | 358 kts | 141° |
| 2026-04-30 05:46 | 14.07808 | 121.65084 | 23986 ft | 360 kts | 141° |
| 2026-04-30 05:46 | 14.05790 | 121.66630 | 24354 ft | 362 kts | 141° |
| 2026-04-30 05:46 | 14.03776 | 121.68178 | 24698 ft | 364 kts | 141° |
| 2026-04-30 05:46 | 14.01720 | 121.69755 | 25029 ft | 366 kts | 141° |
| 2026-04-30 05:47 | 13.99673 | 121.71319 | 25351 ft | 368 kts | 142° |
| 2026-04-30 05:47 | 13.97588 | 121.72910 | 25667 ft | 370 kts | 142° |
| 2026-04-30 05:47 | 13.95517 | 121.74489 | 25968 ft | 372 kts | 142° |
| 2026-04-30 05:47 | 13.93389 | 121.76110 | 26265 ft | 373 kts | 142° |
| 2026-04-30 05:48 | 13.91272 | 121.77721 | 26550 ft | 375 kts | 142° |
| 2026-04-30 05:48 | 13.89153 | 121.79333 | 26824 ft | 377 kts | 142° |
| 2026-04-30 05:48 | 13.87024 | 121.80944 | 27088 ft | 379 kts | 143° |
| 2026-04-30 05:48 | 13.84915 | 121.82535 | 27341 ft | 380 kts | 143° |
| 2026-04-30 05:49 | 13.82748 | 121.84163 | 27593 ft | 382 kts | 143° |
| 2026-04-30 05:49 | 13.80592 | 121.85786 | 27833 ft | 383 kts | 143° |
| 2026-04-30 05:49 | 13.78437 | 121.87408 | 28068 ft | 385 kts | 143° |
| 2026-04-30 05:49 | 13.76273 | 121.89037 | 28297 ft | 386 kts | 143° |
| 2026-04-30 05:50 | 13.74103 | 121.90673 | 28521 ft | 388 kts | 143° |
| 2026-04-30 05:50 | 13.71908 | 121.92329 | 28751 ft | 389 kts | 143° |
| 2026-04-30 05:50 | 13.69711 | 121.93985 | 28970 ft | 390 kts | 143° |
| 2026-04-30 05:50 | 13.67538 | 121.95624 | 29166 ft | 391 kts | 144° |
| 2026-04-30 05:51 | 13.65329 | 121.97287 | 29379 ft | 392 kts | 144° |
| 2026-04-30 05:51 | 13.63107 | 121.98962 | 29593 ft | 393 kts | 144° |
| 2026-04-30 05:51 | 13.60904 | 122.00621 | 29782 ft | 394 kts | 144° |
| 2026-04-30 05:51 | 13.58657 | 122.02313 | 29951 ft | 396 kts | 144° |
| 2026-04-30 05:52 | 13.56436 | 122.03986 | 30132 ft | 397 kts | 144° |
| 2026-04-30 05:52 | 13.54206 | 122.05664 | 30314 ft | 398 kts | 144° |
| 2026-04-30 05:52 | 13.51957 | 122.07355 | 30475 ft | 399 kts | 144° |
| 2026-04-30 05:52 | 13.49719 | 122.09039 | 30633 ft | 400 kts | 144° |
| 2026-04-30 05:53 | 13.47455 | 122.10742 | 30794 ft | 401 kts | 144° |
| 2026-04-30 05:53 | 13.45198 | 122.12439 | 30951 ft | 402 kts | 144° |
| 2026-04-30 05:53 | 13.42930 | 122.14144 | 31108 ft | 403 kts | 144° |
| 2026-04-30 05:53 | 13.40659 | 122.15851 | 31258 ft | 404 kts | 144° |
| 2026-04-30 05:54 | 13.38388 | 122.17557 | 31400 ft | 405 kts | 144° |
| 2026-04-30 05:54 | 13.36120 | 122.19260 | 31540 ft | 406 kts | 144° |
| 2026-04-30 05:54 | 13.33827 | 122.20984 | 31688 ft | 407 kts | 144° |
| 2026-04-30 05:54 | 13.31537 | 122.22704 | 31828 ft | 408 kts | 144° |
| 2026-04-30 05:55 | 13.29228 | 122.24437 | 31960 ft | 409 kts | 144° |
| 2026-04-30 05:55 | 13.26924 | 122.26167 | 32088 ft | 410 kts | 144° |
| 2026-04-30 05:55 | 13.24574 | 122.27930 | 32218 ft | 411 kts | 144° |
| 2026-04-30 05:55 | 13.22234 | 122.29686 | 32349 ft | 412 kts | 144° |
| 2026-04-30 05:56 | 13.19896 | 122.31439 | 32488 ft | 416 kts | 144° |
| 2026-04-30 05:56 | 13.17550 | 122.33199 | 32894 ft | 419 kts | 144° |
| 2026-04-30 05:56 | 13.15186 | 122.34972 | 33433 ft | 419 kts | 144° |
| 2026-04-30 05:56 | 13.12814 | 122.36750 | 33836 ft | 422 kts | 144° |
| 2026-04-30 05:57 | 13.10441 | 122.38528 | 34170 ft | 425 kts | 144° |
| 2026-04-30 05:57 | 13.08044 | 122.40323 | 34390 ft | 424 kts | 144° |
| 2026-04-30 05:57 | 13.03259 | 122.43906 | 34390 ft | 429 kts | 144° |
| 2026-04-30 05:58 | 12.98397 | 122.47546 | 34526 ft | 431 kts | 144° |
| 2026-04-30 05:58 | 12.93626 | 122.51115 | 34680 ft | 433 kts | 144° |
| 2026-04-30 05:59 | 12.88693 | 122.54803 | 34769 ft | 436 kts | 144° |
| 2026-04-30 05:59 | 12.83854 | 122.58399 | 34779 ft | 440 kts | 144° |
| 2026-04-30 06:00 | 12.78842 | 122.62134 | 34780 ft | 445 kts | 144° |
| 2026-04-30 06:00 | 12.73756 | 122.65931 | 34775 ft | 448 kts | 144° |
| 2026-04-30 06:01 | 12.68730 | 122.69713 | 34781 ft | 448 kts | 144° |
| 2026-04-30 06:01 | 12.63625 | 122.73537 | 34778 ft | 449 kts | 144° |
| 2026-04-30 06:02 | 12.58517 | 122.77352 | 34779 ft | 448 kts | 144° |
| 2026-04-30 06:02 | 12.53462 | 122.81122 | 34780 ft | 448 kts | 144° |
| 2026-04-30 06:03 | 12.48360 | 122.84924 | 34777 ft | 449 kts | 144° |
| 2026-04-30 06:03 | 12.43301 | 122.88695 | 34780 ft | 448 kts | 144° |
| 2026-04-30 06:04 | 12.38215 | 122.92484 | 34778 ft | 448 kts | 144° |
| 2026-04-30 06:05 | 12.30574 | 122.98167 | 34779 ft | 448 kts | 144° |
| 2026-04-30 06:05 | 12.25447 | 123.01967 | 34778 ft | 448 kts | 144° |
| 2026-04-30 06:06 | 12.20400 | 123.05711 | 34780 ft | 448 kts | 144° |
| 2026-04-30 06:06 | 12.15391 | 123.09428 | 34779 ft | 448 kts | 144° |
| 2026-04-30 06:07 | 12.10320 | 123.13191 | 34781 ft | 448 kts | 144° |
| 2026-04-30 06:07 | 12.05259 | 123.16945 | 34783 ft | 449 kts | 144° |
| 2026-04-30 06:08 | 12.00193 | 123.20700 | 34783 ft | 448 kts | 144° |
| 2026-04-30 06:08 | 11.95103 | 123.24473 | 34785 ft | 449 kts | 144° |
| 2026-04-30 06:09 | 11.90060 | 123.28208 | 34785 ft | 449 kts | 144° |
| 2026-04-30 06:09 | 11.84928 | 123.31989 | 34783 ft | 448 kts | 144° |
| 2026-04-30 06:10 | 11.79828 | 123.35748 | 34782 ft | 449 kts | 144° |
| 2026-04-30 06:10 | 11.74726 | 123.39519 | 34780 ft | 448 kts | 144° |
| 2026-04-30 06:10 | 11.72187 | 123.41395 | 34612 ft | 450 kts | 144° |
| 2026-04-30 06:11 | 11.69659 | 123.43265 | 33762 ft | 450 kts | 145° |
| 2026-04-30 06:11 | 11.67109 | 123.45150 | 32977 ft | 447 kts | 144° |
| 2026-04-30 06:11 | 11.64611 | 123.46995 | 32200 ft | 444 kts | 144° |
| 2026-04-30 06:11 | 11.62112 | 123.48840 | 31359 ft | 444 kts | 144° |
| 2026-04-30 06:12 | 11.59586 | 123.50705 | 30524 ft | 448 kts | 144° |
| 2026-04-30 06:12 | 11.57071 | 123.52562 | 29700 ft | 450 kts | 144° |
| 2026-04-30 06:12 | 11.54537 | 123.54431 | 28872 ft | 453 kts | 144° |
| 2026-04-30 06:12 | 11.51952 | 123.56336 | 28033 ft | 456 kts | 143° |
| 2026-04-30 06:13 | 11.49370 | 123.58240 | 27205 ft | 458 kts | 143° |
| 2026-04-30 06:13 | 11.46767 | 123.60160 | 26379 ft | 461 kts | 143° |
| 2026-04-30 06:13 | 11.44184 | 123.62065 | 25555 ft | 458 kts | 142° |
| 2026-04-30 06:13 | 11.41620 | 123.63957 | 24739 ft | 453 kts | 142° |
| 2026-04-30 06:14 | 11.39072 | 123.65837 | 23885 ft | 448 kts | 142° |
| 2026-04-30 06:14 | 11.36588 | 123.67684 | 23039 ft | 443 kts | 141° |
| 2026-04-30 06:14 | 11.34102 | 123.69533 | 22187 ft | 439 kts | 141° |
| 2026-04-30 06:14 | 11.31652 | 123.71352 | 21345 ft | 435 kts | 142° |
| 2026-04-30 06:15 | 11.29230 | 123.73145 | 20517 ft | 431 kts | 142° |
| 2026-04-30 06:15 | 11.26789 | 123.74947 | 19792 ft | 424 kts | 142° |
| 2026-04-30 06:15 | 11.24425 | 123.76690 | 19312 ft | 418 kts | 142° |
| 2026-04-30 06:15 | 11.22060 | 123.78434 | 18830 ft | 420 kts | 142° |
| 2026-04-30 06:16 | 11.19716 | 123.80160 | 18351 ft | 417 kts | 142° |
| 2026-04-30 06:16 | 11.17360 | 123.81892 | 17866 ft | 415 kts | 143° |
| 2026-04-30 06:16 | 11.14812 | 123.83280 | 17335 ft | 415 kts | 160° |
| 2026-04-30 06:16 | 11.11932 | 123.83742 | 16864 ft | 416 kts | 180° |
| 2026-04-30 06:17 | 11.09067 | 123.83272 | 16412 ft | 416 kts | 194° |
| 2026-04-30 06:17 | 11.06286 | 123.82480 | 15929 ft | 414 kts | 195° |
| 2026-04-30 06:17 | 11.03535 | 123.81670 | 15461 ft | 411 kts | 195° |
| 2026-04-30 06:17 | 11.00792 | 123.80872 | 14984 ft | 404 kts | 195° |
| 2026-04-30 06:18 | 10.98103 | 123.80103 | 14510 ft | 394 kts | 195° |
| 2026-04-30 06:18 | 10.95466 | 123.79357 | 14033 ft | 385 kts | 195° |
| 2026-04-30 06:18 | 10.92901 | 123.78637 | 13562 ft | 376 kts | 195° |
| 2026-04-30 06:18 | 10.90403 | 123.77938 | 13096 ft | 369 kts | 195° |
| 2026-04-30 06:19 | 10.87914 | 123.77245 | 12627 ft | 362 kts | 195° |
| 2026-04-30 06:19 | 10.85516 | 123.76580 | 12166 ft | 355 kts | 195° |
| 2026-04-30 06:19 | 10.83115 | 123.75912 | 11696 ft | 349 kts | 195° |
| 2026-04-30 06:19 | 10.80811 | 123.75269 | 11241 ft | 344 kts | 195° |
| 2026-04-30 06:20 | 10.78494 | 123.74624 | 10779 ft | 338 kts | 195° |
| 2026-04-30 06:20 | 10.76235 | 123.73997 | 10322 ft | 333 kts | 194° |
| 2026-04-30 06:20 | 10.73997 | 123.73376 | 9866 ft | 329 kts | 195° |
| 2026-04-30 06:20 | 10.71806 | 123.72768 | 9418 ft | 324 kts | 194° |
| 2026-04-30 06:21 | 10.69637 | 123.72166 | 8964 ft | 320 kts | 194° |
| 2026-04-30 06:21 | 10.67486 | 123.71568 | 8570 ft | 314 kts | 194° |
| 2026-04-30 06:21 | 10.65404 | 123.70989 | 8279 ft | 306 kts | 194° |
| 2026-04-30 06:21 | 10.63358 | 123.70422 | 7995 ft | 302 kts | 195° |
| 2026-04-30 06:22 | 10.61287 | 123.69847 | 7713 ft | 306 kts | 195° |
| 2026-04-30 06:22 | 10.59224 | 123.69274 | 7431 ft | 304 kts | 194° |
| 2026-04-30 06:22 | 10.57188 | 123.68707 | 7148 ft | 303 kts | 194° |
| 2026-04-30 06:22 | 10.55155 | 123.68141 | 6867 ft | 302 kts | 194° |
| 2026-04-30 06:23 | 10.53101 | 123.67569 | 6583 ft | 300 kts | 195° |
| 2026-04-30 06:23 | 10.51060 | 123.67000 | 6294 ft | 299 kts | 195° |
| 2026-04-30 06:23 | 10.49062 | 123.66444 | 6014 ft | 298 kts | 195° |
| 2026-04-30 06:23 | 10.47048 | 123.65882 | 5729 ft | 297 kts | 195° |
| 2026-04-30 06:24 | 10.45063 | 123.65329 | 5445 ft | 295 kts | 195° |
| 2026-04-30 06:24 | 10.43086 | 123.64778 | 5162 ft | 293 kts | 194° |
| 2026-04-30 06:24 | 10.41073 | 123.64217 | 4874 ft | 292 kts | 194° |
| 2026-04-30 06:24 | 10.39113 | 123.63672 | 4588 ft | 290 kts | 194° |
| 2026-04-30 06:25 | 10.37154 | 123.63127 | 4304 ft | 289 kts | 194° |
| 2026-04-30 06:25 | 10.35169 | 123.62837 | 3972 ft | 285 kts | 171° |
| 2026-04-30 06:25 | 10.33353 | 123.63532 | 3771 ft | 269 kts | 141° |
| 2026-04-30 06:25 | 10.32019 | 123.64796 | 3764 ft | 250 kts | 133° |
| 2026-04-30 06:26 | 10.30818 | 123.66054 | 3651 ft | 247 kts | 133° |
| 2026-04-30 06:26 | 10.29626 | 123.67301 | 3560 ft | 247 kts | 133° |
| 2026-04-30 06:26 | 10.28382 | 123.68587 | 3465 ft | 247 kts | 134° |
| 2026-04-30 06:26 | 10.27172 | 123.69827 | 3373 ft | 246 kts | 134° |
| 2026-04-30 06:27 | 10.25969 | 123.71055 | 3272 ft | 241 kts | 134° |
| 2026-04-30 06:27 | 10.24797 | 123.72248 | 3155 ft | 230 kts | 134° |
| 2026-04-30 06:27 | 10.23672 | 123.73393 | 3035 ft | 220 kts | 134° |
| 2026-04-30 06:27 | 10.22595 | 123.74489 | 2952 ft | 221 kts | 134° |
| 2026-04-30 06:28 | 10.21488 | 123.75614 | 2852 ft | 221 kts | 134° |
| 2026-04-30 06:28 | 10.20397 | 123.76723 | 2755 ft | 220 kts | 134° |
| 2026-04-30 06:28 | 10.19303 | 123.77833 | 2664 ft | 219 kts | 134° |
| 2026-04-30 06:28 | 10.18234 | 123.78921 | 2566 ft | 219 kts | 134° |
| 2026-04-30 06:29 | 10.17151 | 123.80019 | 2469 ft | 218 kts | 134° |
| 2026-04-30 06:29 | 10.16208 | 123.81244 | 2329 ft | 216 kts | 109° |
| 2026-04-30 06:29 | 10.16100 | 123.82717 | 2283 ft | 214 kts | 75° |
| 2026-04-30 06:29 | 10.16818 | 123.84048 | 2239 ft | 218 kts | 47° |
| 2026-04-30 06:30 | 10.17932 | 123.85139 | 2281 ft | 223 kts | 46° |
| 2026-04-30 06:30 | 10.19065 | 123.86237 | 2291 ft | 216 kts | 46° |
| 2026-04-30 06:30 | 10.20112 | 123.87266 | 2243 ft | 199 kts | 47° |
| 2026-04-30 06:30 | 10.21060 | 123.88206 | 2217 ft | 180 kts | 47° |
| 2026-04-30 06:31 | 10.21968 | 123.89114 | 2255 ft | 183 kts | 47° |
| 2026-04-30 06:31 | 10.22877 | 123.90023 | 2260 ft | 175 kts | 47° |
| 2026-04-30 06:31 | 10.23703 | 123.90848 | 2208 ft | 161 kts | 48° |
| 2026-04-30 06:31 | 10.24517 | 123.91666 | 2260 ft | 164 kts | 47° |
| 2026-04-30 06:32 | 10.25323 | 123.92474 | 2136 ft | 158 kts | 47° |
| 2026-04-30 06:32 | 10.26092 | 123.93301 | 1592 ft | 166 kts | 52° |
| 2026-04-30 06:32 | 10.26902 | 123.94151 | 1105 ft | 169 kts | 46° |
| 2026-04-30 06:32 | 10.27760 | 123.94955 | 722 ft | 163 kts | 50° |
| 2026-04-30 06:33 | 10.28563 | 123.95752 | 507 ft | 165 kts | 48° |
| 2026-04-30 06:33 | 10.29422 | 123.96618 | 263 ft | 170 kts | 48° |
| 2026-04-30 06:33 | 10.30244 | 123.97433 | 57 ft | 165 kts | 45° |
| 2026-04-30 06:33 | 10.31151 | 123.98308 | 382 ft | 196 kts | 45° |
| 2026-04-30 06:34 | 10.32200 | 123.99335 | 843 ft | 219 kts | 49° |
| 2026-04-30 06:34 | 10.33285 | 124.00516 | 1524 ft | 233 kts | 54° |
| 2026-04-30 06:34 | 10.34168 | 124.01846 | 2512 ft | 231 kts | 64° |
| 2026-04-30 06:34 | 10.34739 | 124.03442 | 3168 ft | 242 kts | 83° |
| 2026-04-30 06:35 | 10.34661 | 124.05146 | 3578 ft | 244 kts | 106° |
| 2026-04-30 06:35 | 10.33882 | 124.06683 | 3735 ft | 248 kts | 130° |
| 2026-04-30 06:35 | 10.32519 | 124.07765 | 3733 ft | 250 kts | 155° |
| 2026-04-30 06:35 | 10.30818 | 124.08180 | 3731 ft | 253 kts | 179° |
| 2026-04-30 06:36 | 10.29094 | 124.07846 | 3732 ft | 256 kts | 203° |
| 2026-04-30 06:36 | 10.27490 | 124.07030 | 3734 ft | 257 kts | 207° |
| 2026-04-30 06:36 | 10.25902 | 124.06148 | 3734 ft | 257 kts | 207° |
| 2026-04-30 06:36 | 10.24314 | 124.05275 | 3733 ft | 257 kts | 207° |
| 2026-04-30 06:37 | 10.22748 | 124.04427 | 3732 ft | 257 kts | 206° |
| 2026-04-30 06:37 | 10.21125 | 124.03560 | 3731 ft | 257 kts | 206° |
| 2026-04-30 06:37 | 10.19546 | 124.02721 | 3731 ft | 257 kts | 206° |
| 2026-04-30 06:37 | 10.17961 | 124.01842 | 3726 ft | 258 kts | 214° |
| 2026-04-30 06:38 | 10.16643 | 124.00602 | 3739 ft | 259 kts | 227° |
| 2026-04-30 06:38 | 10.15461 | 123.99235 | 3733 ft | 259 kts | 229° |
| 2026-04-30 06:38 | 10.14268 | 123.97829 | 3731 ft | 259 kts | 228° |
| 2026-04-30 06:38 | 10.13087 | 123.96457 | 3733 ft | 258 kts | 228° |
| 2026-04-30 06:39 | 10.11880 | 123.95073 | 3735 ft | 259 kts | 227° |
| 2026-04-30 06:39 | 10.10689 | 123.93718 | 3734 ft | 259 kts | 227° |
| 2026-04-30 06:39 | 10.09474 | 123.92340 | 3733 ft | 259 kts | 227° |
| 2026-04-30 06:39 | 10.08279 | 123.90987 | 3644 ft | 258 kts | 227° |
| 2026-04-30 06:40 | 10.07198 | 123.89539 | 3528 ft | 259 kts | 247° |
| 2026-04-30 06:40 | 10.06996 | 123.87727 | 3404 ft | 257 kts | 286° |
| 2026-04-30 06:40 | 10.07875 | 123.86172 | 3305 ft | 256 kts | 319° |
| 2026-04-30 06:40 | 10.09331 | 123.85202 | 3153 ft | 245 kts | 335° |
| 2026-04-30 06:41 | 10.10861 | 123.84452 | 3002 ft | 236 kts | 335° |
| 2026-04-30 06:41 | 10.12301 | 123.83718 | 2848 ft | 229 kts | 334° |
| 2026-04-30 06:41 | 10.13714 | 123.82987 | 2683 ft | 221 kts | 342° |
| 2026-04-30 06:41 | 10.15193 | 123.82827 | 2505 ft | 207 kts | 16° |
| 2026-04-30 06:42 | 10.16440 | 123.83460 | 2441 ft | 200 kts | 40° |
| 2026-04-30 06:42 | 10.17460 | 123.84439 | 2349 ft | 199 kts | 49° |
| 2026-04-30 06:42 | 10.18409 | 123.85472 | 2351 ft | 200 kts | 49° |
| 2026-04-30 06:42 | 10.19370 | 123.86492 | 2410 ft | 192 kts | 48° |
| 2026-04-30 06:43 | 10.20272 | 123.87415 | 2341 ft | 175 kts | 47° |
| 2026-04-30 06:43 | 10.21110 | 123.88257 | 2219 ft | 162 kts | 47° |
| 2026-04-30 06:43 | 10.21913 | 123.89062 | 2013 ft | 163 kts | 48° |
| 2026-04-30 06:43 | 10.22739 | 123.89891 | 1806 ft | 163 kts | 48° |
| 2026-04-30 06:44 | 10.23553 | 123.90707 | 1605 ft | 163 kts | 49° |
| 2026-04-30 06:44 | 10.24362 | 123.91518 | 1395 ft | 163 kts | 49° |
| 2026-04-30 06:44 | 10.25188 | 123.92348 | 1189 ft | 164 kts | 48° |
| 2026-04-30 06:44 | 10.26001 | 123.93162 | 959 ft | 164 kts | 48° |
| 2026-04-30 06:45 | 10.26815 | 123.93980 | 804 ft | 165 kts | 47° |
| 2026-04-30 06:45 | 10.27658 | 123.94825 | 626 ft | 167 kts | 47° |
| 2026-04-30 06:45 | 10.28499 | 123.95671 | 350 ft | 163 kts | 49° |
| 2026-04-30 06:45 | 10.29310 | 123.96501 | 129 ft | 172 kts | 47° |
| 2026-04-30 06:46 | 10.30156 | 123.97339 | 76 ft | 156 kts | 49° |
| 2026-04-30 06:46 | 10.30850 | 123.98055 | 39 ft | 116 kts | 47° |
| 2026-04-30 06:46 | 10.31262 | 123.98457 | 39 ft | 55 kts | 43° |
| 2026-04-30 06:46 | 10.31424 | 123.98609 | 39 ft | 18 kts | 47° |
| 2026-04-30 06:47 | 10.31548 | 123.98737 | 39 ft | 31 kts | 45° |
| 2026-04-30 06:47 | 10.31715 | 123.98906 | 39 ft | 27 kts | 45° |
| 2026-04-30 06:47 | 10.31801 | 123.98978 | 39 ft | 10 kts | 15° |
| 2026-04-30 06:47 | 10.31894 | 123.98926 | 39 ft | 22 kts | 310° |
| 2026-04-30 06:48 | 10.31987 | 123.98799 | 39 ft | 13 kts | 279° |
| 2026-04-30 06:48 | 10.31935 | 123.98721 | 39 ft | 15 kts | 225° |
| 2026-04-30 06:48 | 10.31851 | 123.98635 | 39 ft | 19 kts | 225° |
| 2026-04-30 06:48 | 10.31747 | 123.98530 | 39 ft | 22 kts | 225° |
| 2026-04-30 06:49 | 10.31629 | 123.98410 | 39 ft | 25 kts | 224° |
| 2026-04-30 06:49 | 10.31521 | 123.98302 | 39 ft | 11 kts | 225° |
| 2026-04-30 06:49 | 10.31485 | 123.98242 | 39 ft | 8 kts | 277° |
| 2026-04-30 06:49 | 10.31530 | 123.98183 | 39 ft | 13 kts | 314° |
| 2026-04-30 06:50 | 10.31572 | 123.98122 | 39 ft | 7 kts | 268° |
| 2026-04-30 06:50 | 10.31533 | 123.98073 | 39 ft | 10 kts | 222° |
| 2026-04-30 06:50 | 10.31479 | 123.98016 | 39 ft | 12 kts | 226° |
| 2026-04-30 06:50 | 10.31458 | 123.97990 | 39 ft | 1 kts | 260° |
| 2026-04-30 06:51 | 10.31467 | 123.97968 | 39 ft | 5 kts | 314° |
| 2026-04-30 06:51 | 10.31492 | 123.97944 | 39 ft | 3 kts | 316° |
| 2026-04-30 06:51 | 10.31501 | 123.97935 | 39 ft | 0 kts | 315° |